Time;durP1;ratioP1;P1;durP2;ratioP2;P2;SDS_P1;SDS_P2;PMS_P1;PMS_P2;Temp;Humidity;BMP_temperature;BMP_pressure;BME280_temperature;BME280_humidity;BME280_pressure;Samples;Min_cycle;Max_cycle;Signal;HPM_P1;HPM_P2
2022/02/04 00:01:48;;;;;;;;;;;22.60;29.20;;;;;;5088433;28;19985;-62
2022/02/04 00:03:05;;;;;;;;;;;22.60;29.30;;;;;;5087312;28;20017;-62
2022/02/04 00:04:56;;;;;;;;;;;22.60;29.30;;;;;;5088675;28;20300;-62
2022/02/04 00:20:11;;;;;;;;;;;22.60;29.30;;;;;;5088455;28;19977;-62
2022/02/04 00:24:20;;;;;;;;;;;22.60;29.20;;;;;;5073434;28;19993;-62
2022/02/04 00:26:55;;;;;;;;;;;22.50;29.30;;;;;;5086505;28;19963;-62
2022/02/04 00:29:30;;;;;;;;;;;22.50;29.20;;;;;;5088394;28;20377;-62
2022/02/04 00:32:03;;;;;;;;;;;22.50;29.20;;;;;;5086667;28;20428;-63
2022/02/04 00:34:37;;;;;;;;;;;22.50;29.20;;;;;;5088647;28;19938;-62
2022/02/04 00:39:58;;;;;;;;;;;22.50;29.20;;;;;;5088513;28;19996;-62
2022/02/04 00:42:27;;;;;;;;;;;22.50;29.20;;;;;;5085633;28;19969;-62
2022/02/04 00:45:09;;;;;;;;;;;22.50;29.20;;;;;;5070561;28;19955;-62
2022/02/04 00:48:08;;;;;;;;;;;22.50;29.30;;;;;;5085060;28;20428;-62
2022/02/04 00:50:51;;;;;;;;;;;22.50;29.30;;;;;;5087634;28;19994;-62
2022/02/04 00:53:29;;;;;;;;;;;22.50;29.30;;;;;;5086483;28;20097;-63
2022/02/04 00:56:09;;;;;;;;;;;22.50;29.30;;;;;;5087348;28;20013;-62
2022/02/04 01:26:57;;;;;;;;;;;22.40;29.30;;;;;;5085844;28;19928;-62
2022/02/04 01:29:29;;;;;;;;;;;22.40;29.30;;;;;;5069864;28;20030;-62
2022/02/04 01:31:56;;;;;;;;;;;22.40;29.30;;;;;;5085772;28;19989;-62
2022/02/04 01:34:23;;;;;;;;;;;22.40;29.30;;;;;;5087767;28;19946;-62
2022/02/04 01:36:50;;;;;;;;;;;22.40;29.30;;;;;;5085116;28;20425;-62
2022/02/04 01:39:17;;;;;;;;;;;22.40;29.30;;;;;;5087928;28;20414;-62
2022/02/04 01:41:44;;;;;;;;;;;22.40;29.30;;;;;;5084871;28;19924;-62
2022/02/04 01:44:21;;;;;;;;;;;22.50;29.30;;;;;;5087754;28;19951;-62
2022/02/04 01:46:49;;;;;;;;;;;22.40;29.30;;;;;;5066910;28;19924;-62
2022/02/04 01:49:16;;;;;;;;;;;22.40;29.30;;;;;;5087844;28;20361;-62
2022/02/04 01:51:43;;;;;;;;;;;22.40;29.30;;;;;;5089438;28;20371;-62
2022/02/04 01:54:10;;;;;;;;;;;22.40;29.30;;;;;;5091714;28;20225;-62
2022/02/04 01:56:37;;;;;;;;;;;22.50;29.30;;;;;;5089406;28;19924;-62
2022/02/04 01:59:04;;;;;;;;;;;22.40;29.30;;;;;;5089954;28;20023;-62
2022/02/04 02:01:31;;;;;;;;;;;22.40;29.30;;;;;;5088502;28;20331;-62
2022/02/04 02:04:00;;;;;;;;;;;22.40;29.30;;;;;;5090581;28;19985;-62
2022/02/04 02:06:42;;;;;;;;;;;22.40;29.30;;;;;;5088881;28;19965;-62
2022/02/04 02:09:10;;;;;;;;;;;22.40;29.30;;;;;;5091317;28;19999;-62
2022/02/04 02:11:37;;;;;;;;;;;22.40;29.30;;;;;;5088149;28;19982;-62
2022/02/04 02:14:08;;;;;;;;;;;22.40;29.30;;;;;;5091086;28;19959;-62
2022/02/04 02:33:54;;;;;;;;;;;22.40;29.40;;;;;;5089537;28;19963;-63
2022/02/04 02:42:17;;;;;;;;;;;22.30;29.30;;;;;;5088629;28;19990;-62
2022/02/04 02:44:53;;;;;;;;;;;22.30;29.30;;;;;;5090001;28;20032;-62
2022/02/04 02:47:38;;;;;;;;;;;22.40;29.40;;;;;;5087571;28;20434;-62
2022/02/04 02:50:37;;;;;;;;;;;22.30;29.30;;;;;;5090229;28;20466;-62
2022/02/04 02:53:24;;;;;;;;;;;22.30;29.40;;;;;;5088010;28;19993;-62
2022/02/04 02:55:51;;;;;;;;;;;22.30;29.40;;;;;;5089135;28;19970;-62
2022/02/04 02:58:25;;;;;;;;;;;22.30;29.40;;;;;;5088384;28;20011;-62
2022/02/04 03:01:07;;;;;;;;;;;22.30;29.40;;;;;;5070223;28;20373;-62
2022/02/04 03:03:38;;;;;;;;;;;22.30;29.40;;;;;;5089229;28;19942;-62
2022/02/04 03:06:06;;;;;;;;;;;22.30;29.40;;;;;;5070061;28;20162;-62
2022/02/04 03:08:33;;;;;;;;;;;22.30;29.40;;;;;;5088769;28;19919;-62
2022/02/04 03:11:00;;;;;;;;;;;22.30;29.40;;;;;;5088124;28;20165;-62
2022/02/04 03:13:28;;;;;;;;;;;22.30;29.40;;;;;;5088745;28;20403;-62
2022/02/04 03:16:01;;;;;;;;;;;22.30;29.40;;;;;;5088328;28;20015;-62
2022/02/04 03:18:32;;;;;;;;;;;22.30;29.40;;;;;;5088655;28;20339;-62
2022/02/04 03:21:06;;;;;;;;;;;22.30;29.40;;;;;;5088552;28;19973;-62
2022/02/04 03:23:37;;;;;;;;;;;22.30;29.40;;;;;;5088486;28;19963;-62
2022/02/04 03:26:10;;;;;;;;;;;22.30;29.40;;;;;;5088248;28;20322;-62
2022/02/04 03:28:37;;;;;;;;;;;22.30;29.40;;;;;;5088955;28;19920;-62
2022/02/04 03:31:05;;;;;;;;;;;22.30;29.40;;;;;;5088436;28;20425;-62
2022/02/04 03:33:34;;;;;;;;;;;22.30;29.40;;;;;;5088883;28;19973;-62
2022/02/04 03:36:01;;;;;;;;;;;22.30;29.40;;;;;;5088051;28;19974;-62
2022/02/04 03:38:28;;;;;;;;;;;22.30;29.40;;;;;;5088608;28;20369;-63
2022/02/04 03:40:55;;;;;;;;;;;22.30;29.40;;;;;;5087815;28;19920;-62
2022/02/04 03:46:39;;;;;;;;;;;22.30;29.40;;;;;;5086360;28;19938;-62
2022/02/04 03:49:06;;;;;;;;;;;22.30;29.40;;;;;;5088439;28;19927;-62
2022/02/04 03:51:33;;;;;;;;;;;22.30;29.40;;;;;;5086965;28;19986;-62
2022/02/04 03:54:00;;;;;;;;;;;22.30;29.40;;;;;;5088321;28;19966;-62
2022/02/04 03:56:27;;;;;;;;;;;22.30;29.40;;;;;;5086452;28;19946;-62
2022/02/04 03:58:54;;;;;;;;;;;22.30;29.40;;;;;;5088596;28;20003;-62
2022/02/04 04:01:21;;;;;;;;;;;22.30;29.40;;;;;;5087685;28;19920;-62
2022/02/04 04:03:48;;;;;;;;;;;22.30;29.40;;;;;;5088579;28;20040;-62
2022/02/04 04:06:17;;;;;;;;;;;22.30;29.40;;;;;;5102428;28;19924;-62
2022/02/04 04:08:44;;;;;;;;;;;22.30;29.40;;;;;;5088255;28;19959;-62
2022/02/04 04:11:13;;;;;;;;;;;22.30;29.40;;;;;;5086461;28;19920;-62
2022/02/04 04:13:40;;;;;;;;;;;22.30;29.40;;;;;;5087313;28;20380;-62
2022/02/04 04:16:07;;;;;;;;;;;22.20;29.40;;;;;;5087101;28;19924;-62
2022/02/04 04:21:39;;;;;;;;;;;22.20;29.40;;;;;;5086368;28;19920;-62
2022/02/04 04:24:06;;;;;;;;;;;22.20;29.40;;;;;;5088351;28;20318;-62
2022/02/04 04:26:33;;;;;;;;;;;22.20;29.40;;;;;;5086657;28;20015;-64
2022/02/04 04:29:00;;;;;;;;;;;22.20;29.40;;;;;;5088249;28;20022;-62
2022/02/04 04:31:27;;;;;;;;;;;22.20;29.40;;;;;;5086701;28;20044;-62
2022/02/04 04:33:54;;;;;;;;;;;22.20;29.40;;;;;;5089094;28;19986;-62
2022/02/04 04:36:22;;;;;;;;;;;22.20;29.40;;;;;;5086483;28;19920;-62
2022/02/04 04:38:57;;;;;;;;;;;22.20;29.40;;;;;;5073039;28;19960;-62
2022/02/04 04:41:52;;;;;;;;;;;22.20;29.40;;;;;;5091576;27;20099;-62
2022/02/04 05:25:56;;;;;;;;;;;22.20;29.40;;;;;;5085459;28;20011;-62
2022/02/04 05:27:01;;;;;;;;;;;22.20;29.50;;;;;;5088709;28;19982;-62
2022/02/04 05:29:14;;;;;;;;;;;22.20;29.50;;;;;;5071727;28;20120;-62
2022/02/04 05:31:41;;;;;;;;;;;22.20;29.40;;;;;;5081866;28;20351;-62
2022/02/04 05:34:09;;;;;;;;;;;22.20;29.40;;;;;;5091860;28;19943;-62
2022/02/04 05:36:41;;;;;;;;;;;22.20;29.40;;;;;;5095985;28;19993;-62
2022/02/04 05:39:10;;;;;;;;;;;22.20;29.40;;;;;;5092079;28;19931;-62
2022/02/04 05:41:41;;;;;;;;;;;22.20;29.40;;;;;;5089573;28;19920;-62
2022/02/04 05:44:11;;;;;;;;;;;22.20;29.40;;;;;;5091716;28;20017;-62
2022/02/04 05:46:49;;;;;;;;;;;22.20;29.40;;;;;;5089411;28;19920;-62
2022/02/04 05:49:19;;;;;;;;;;;22.20;29.40;;;;;;5091412;28;19966;-62
2022/02/04 05:52:09;;;;;;;;;;;22.20;29.40;;;;;;5092092;28;19923;-62
2022/02/04 05:57:28;;;;;;;;;;;22.20;29.50;;;;;;5090916;28;19963;-62
2022/02/04 06:00:19;;;;;;;;;;;22.10;29.50;;;;;;5057622;28;19920;-62
2022/02/04 06:03:24;;;;;;;;;;;22.10;29.40;;;;;;5082593;28;19920;-62
2022/02/04 06:05:54;;;;;;;;;;;22.10;29.40;;;;;;5091276;28;19959;-62
2022/02/04 06:08:45;;;;;;;;;;;22.10;29.40;;;;;;5086453;28;19946;-62
2022/02/04 06:11:21;;;;;;;;;;;22.10;29.30;;;;;;5093337;28;19970;-63
2022/02/04 06:29:58;;;;;;;;;;;22.20;28.90;;;;;;5088527;28;20357;-62
2022/02/04 06:32:25;;;;;;;;;;;22.20;28.80;;;;;;5088664;28;19965;-62
2022/02/04 06:34:52;;;;;;;;;;;22.20;28.80;;;;;;5087094;28;20365;-62
2022/02/04 06:37:19;;;;;;;;;;;22.30;28.70;;;;;;5084372;28;19965;-63
2022/02/04 06:39:46;;;;;;;;;;;22.30;28.60;;;;;;5082311;28;19977;-62
2022/02/04 06:42:24;;;;;;;;;;;22.40;28.70;;;;;;5085918;28;19983;-62
2022/02/04 06:44:51;;;;;;;;;;;22.50;28.60;;;;;;5079950;28;20007;-62
2022/02/04 06:47:19;;;;;;;;;;;22.50;28.50;;;;;;5078846;28;19959;-63
2022/02/04 06:49:46;;;;;;;;;;;22.60;28.60;;;;;;5080226;28;19919;-63
2022/02/04 06:52:14;;;;;;;;;;;22.70;28.80;;;;;;5081690;28;19945;-61
2022/02/04 06:54:41;;;;;;;;;;;22.70;28.70;;;;;;5086468;28;20331;-62
2022/02/04 06:57:08;;;;;;;;;;;22.80;29.00;;;;;;5084788;28;20394;-62
2022/02/04 06:59:38;;;;;;;;;;;22.90;29.10;;;;;;5084053;28;20394;-62
2022/02/04 07:02:07;;;;;;;;;;;22.90;29.10;;;;;;5086590;28;20444;-61
2022/02/04 07:04:35;;;;;;;;;;;23.00;29.10;;;;;;5085263;28;19931;-62
2022/02/04 07:07:02;;;;;;;;;;;23.00;28.90;;;;;;5089722;28;19971;-62
2022/02/04 07:09:44;;;;;;;;;;;23.10;29.10;;;;;;5091802;28;19959;-62
2022/02/04 07:12:31;;;;;;;;;;;23.20;29.20;;;;;;5088995;28;19978;-62
2022/02/04 07:15:27;;;;;;;;;;;23.30;29.30;;;;;;5071028;28;19976;-62
2022/02/04 07:19:44;;;;;;;;;;;23.30;29.10;;;;;;5069437;28;20022;-61
2022/02/04 07:20:31;;;;;;;;;;;23.40;28.90;;;;;;5071404;28;19954;-62
2022/02/04 07:22:58;;;;;;;;;;;23.50;28.80;;;;;;5071094;28;20395;-61
2022/02/04 07:25:25;;;;;;;;;;;23.60;28.70;;;;;;5087052;28;20379;-61
2022/02/04 07:27:55;;;;;;;;;;;23.60;28.60;;;;;;5085262;28;20007;-62
2022/02/04 07:30:40;;;;;;;;;;;23.70;28.40;;;;;;5084781;28;19927;-62
2022/02/04 07:33:16;;;;;;;;;;;23.80;28.40;;;;;;5082557;28;19934;-63
2022/02/04 07:38:37;;;;;;;;;;;23.90;28.40;;;;;;5070226;28;19926;-61
2022/02/04 07:41:05;;;;;;;;;;;23.90;28.40;;;;;;5081732;28;19971;-61
2022/02/04 07:43:33;;;;;;;;;;;23.90;28.40;;;;;;5086884;28;19963;-63
2022/02/04 07:46:00;;;;;;;;;;;24.00;28.50;;;;;;5086905;28;20058;-62
2022/02/04 07:48:27;;;;;;;;;;;24.00;28.40;;;;;;5083965;28;19920;-63
2022/02/04 07:50:54;;;;;;;;;;;24.00;28.40;;;;;;5081859;28;20003;-62
2022/02/04 07:53:24;;;;;;;;;;;24.00;28.50;;;;;;5081883;28;19920;-62
2022/02/04 07:55:52;;;;;;;;;;;24.00;28.50;;;;;;5086073;28;20448;-62
2022/02/04 07:58:19;;;;;;;;;;;24.10;28.60;;;;;;5064970;28;20018;-63
2022/02/04 08:00:46;;;;;;;;;;;24.10;28.60;;;;;;5090173;28;19920;-63
2022/02/04 08:03:53;;;;;;;;;;;24.10;28.60;;;;;;5085814;28;19920;-61
2022/02/04 08:06:07;;;;;;;;;;;24.10;28.70;;;;;;5088346;28;20023;-62
2022/02/04 08:09:15;;;;;;;;;;;24.20;28.80;;;;;;5098874;27;19924;-61
2022/02/04 08:14:23;;;;;;;;;;;24.20;28.80;;;;;;5083886;28;19931;-60
2022/02/04 08:17:22;;;;;;;;;;;24.30;28.70;;;;;;5082589;28;20024;-61
2022/02/04 08:20:05;;;;;;;;;;;24.30;28.70;;;;;;5083100;28;20019;-63
2022/02/04 08:25:22;;;;;;;;;;;24.40;28.80;;;;;;5085006;28;20043;-62
2022/02/04 08:36:42;;;;;;;;;;;24.50;28.50;;;;;;5062087;28;19925;-62
2022/02/04 08:39:18;;;;;;;;;;;24.50;28.40;;;;;;5079522;28;19924;-62
2022/02/04 08:50:16;;;;;;;;;;;24.60;28.70;;;;;;5096718;28;19928;-63
2022/02/04 08:52:57;;;;;;;;;;;24.60;28.60;;;;;;5085597;28;19925;-61
2022/02/04 08:55:39;;;;;;;;;;;24.60;28.60;;;;;;5085444;28;20018;-62
2022/02/04 08:58:26;;;;;;;;;;;24.60;28.50;;;;;;5083324;28;20058;-61
2022/02/04 09:01:09;;;;;;;;;;;24.60;28.50;;;;;;5083061;28;20018;-62
2022/02/04 09:03:48;;;;;;;;;;;24.60;28.40;;;;;;5077148;28;19940;-63
2022/02/04 09:06:19;;;;;;;;;;;24.70;28.50;;;;;;5074228;28;19951;-61
2022/02/04 09:08:51;;;;;;;;;;;24.70;28.30;;;;;;5099891;28;19951;-61
2022/02/04 09:17:16;;;;;;;;;;;24.70;28.10;;;;;;5099177;28;19931;-60
2022/02/04 09:20:01;;;;;;;;;;;24.70;28.10;;;;;;5089357;28;20023;-61
2022/02/04 09:22:42;;;;;;;;;;;24.70;28.00;;;;;;5083153;28;20423;-61
2022/02/04 09:25:10;;;;;;;;;;;24.70;28.00;;;;;;5071754;28;19924;-60
2022/02/04 09:27:37;;;;;;;;;;;24.70;28.00;;;;;;5079160;28;19942;-61
2022/02/04 09:30:06;;;;;;;;;;;24.70;28.00;;;;;;5086848;28;20006;-60
2022/02/04 09:32:37;;;;;;;;;;;24.70;28.10;;;;;;5082220;28;19936;-60
2022/02/04 09:35:04;;;;;;;;;;;24.70;28.20;;;;;;5091816;28;20392;-60
2022/02/04 09:37:31;;;;;;;;;;;24.70;28.20;;;;;;5082104;28;19959;-62
2022/02/04 09:39:58;;;;;;;;;;;24.70;28.30;;;;;;5088454;28;20018;-62
2022/02/04 09:42:26;;;;;;;;;;;24.70;28.30;;;;;;5079103;28;19990;-62
2022/02/04 09:44:53;;;;;;;;;;;24.70;28.40;;;;;;5088312;28;19955;-62
2022/02/04 09:47:25;;;;;;;;;;;24.80;28.50;;;;;;5080041;28;20380;-64
2022/02/04 09:50:11;;;;;;;;;;;24.80;28.50;;;;;;5086318;28;20316;-60
2022/02/04 10:07:17;;;;;;;;;;;24.90;28.50;;;;;;5081970;28;20277;-62
2022/02/04 10:10:12;;;;;;;;;;;24.90;28.50;;;;;;5080014;28;19951;-61
2022/02/04 10:13:00;;;;;;;;;;;25.00;28.50;;;;;;5081553;28;19930;-65
2022/02/04 10:15:47;;;;;;;;;;;25.00;28.60;;;;;;5069708;28;20019;-64
2022/02/04 10:18:34;;;;;;;;;;;25.00;28.50;;;;;;5069898;28;19977;-63
2022/02/04 10:21:05;;;;;;;;;;;25.10;28.50;;;;;;5070872;28;20023;-63
2022/02/04 10:23:45;;;;;;;;;;;25.10;28.60;;;;;;5089466;28;19930;-62
2022/02/04 10:26:12;;;;;;;;;;;25.10;28.50;;;;;;5111892;28;19924;-66
2022/02/04 10:28:40;;;;;;;;;;;25.10;28.50;;;;;;5110938;28;19930;-62
2022/02/04 10:31:16;;;;;;;;;;;25.10;28.60;;;;;;5110620;28;19924;-62
2022/02/04 10:34:11;;;;;;;;;;;25.10;28.60;;;;;;5094859;28;20335;-63
2022/02/04 10:36:54;;;;;;;;;;;25.10;28.70;;;;;;5111476;28;20076;-62
2022/02/04 10:39:58;;;;;;;;;;;25.20;28.70;;;;;;5111529;28;19948;-62
2022/02/04 10:48:28;;;;;;;;;;;25.20;28.70;;;;;;5090787;28;20011;-62
2022/02/04 10:51:11;;;;;;;;;;;25.20;28.70;;;;;;5090745;28;19979;-65
2022/02/04 11:02:04;;;;;;;;;;;25.30;28.50;;;;;;5075480;28;19924;-62
2022/02/04 11:08:05;;;;;;;;;;;25.30;28.40;;;;;;5089217;28;19931;-62
2022/02/04 11:33:39;;;;;;;;;;;25.30;27.90;;;;;;5079493;28;19931;-67
2022/02/04 11:35:43;;;;;;;;;;;25.30;28.00;;;;;;5077127;28;20030;-68
2022/02/04 11:47:53;;;;;;;;;;;25.30;28.10;;;;;;5080172;28;19932;-70
2022/02/04 11:52:46;;;;;;;;;;;25.30;28.20;;;;;;5061467;28;19928;-68
2022/02/04 11:55:32;;;;;;;;;;;25.30;28.30;;;;;;5078610;28;19949;-69
2022/02/04 11:58:03;;;;;;;;;;;25.30;28.30;;;;;;5081896;28;19963;-69
2022/02/04 12:00:47;;;;;;;;;;;25.30;28.40;;;;;;5084946;28;20321;-69
2022/02/04 12:03:23;;;;;;;;;;;25.30;28.40;;;;;;5075698;28;19982;-71
2022/02/04 12:05:51;;;;;;;;;;;25.30;28.40;;;;;;5062982;28;19928;-68
2022/02/04 12:08:19;;;;;;;;;;;25.30;28.40;;;;;;5075858;28;19924;-73
2022/02/04 12:10:52;;;;;;;;;;;25.30;28.50;;;;;;5084047;28;19924;-70
2022/02/04 12:13:20;;;;;;;;;;;25.30;28.60;;;;;;5076568;28;19927;-73
2022/02/04 12:16:04;;;;;;;;;;;25.40;28.70;;;;;;5080114;28;19932;-69
2022/02/04 12:18:51;;;;;;;;;;;25.40;28.80;;;;;;5082850;28;20347;-70
2022/02/04 12:21:19;;;;;;;;;;;25.40;28.80;;;;;;5070219;28;19954;-67
2022/02/04 12:23:49;;;;;;;;;;;25.40;28.90;;;;;;5074028;28;19982;-67
2022/02/04 12:26:20;;;;;;;;;;;25.40;29.00;;;;;;5074809;28;19932;-68
2022/02/04 12:28:50;;;;;;;;;;;25.40;29.00;;;;;;5083499;28;20014;-70
2022/02/04 12:31:24;;;;;;;;;;;25.50;29.10;;;;;;5084639;28;20471;-68
2022/02/04 12:33:59;;;;;;;;;;;25.50;29.10;;;;;;5082775;28;19924;-72
2022/02/04 12:36:30;;;;;;;;;;;25.50;29.10;;;;;;5077478;28;19981;-69
2022/02/04 12:38:58;;;;;;;;;;;25.50;29.20;;;;;;5083729;28;19924;-72
2022/02/04 12:41:27;;;;;;;;;;;25.50;29.20;;;;;;5079834;28;19983;-70
2022/02/04 12:43:57;;;;;;;;;;;25.50;29.10;;;;;;5082730;28;19928;-70
2022/02/04 12:46:25;;;;;;;;;;;25.50;29.20;;;;;;5080495;28;20389;-67
2022/02/04 12:49:04;;;;;;;;;;;25.50;29.20;;;;;;5084110;28;19949;-64
2022/02/04 12:51:54;;;;;;;;;;;25.50;29.20;;;;;;5082708;28;19928;-62
2022/02/04 12:54:39;;;;;;;;;;;25.50;29.20;;;;;;5085823;28;20331;-64
2022/02/04 12:57:32;;;;;;;;;;;25.60;29.20;;;;;;5086822;28;19932;-63
2022/02/04 13:00:20;;;;;;;;;;;25.50;29.00;;;;;;5087489;28;19928;-65
2022/02/04 13:03:06;;;;;;;;;;;25.60;29.30;;;;;;5081726;28;19924;-66
2022/02/04 13:12:19;;;;;;;;;;;25.50;29.30;;;;;;5092337;28;20014;-68
2022/02/04 13:14:47;;;;;;;;;;;25.50;29.30;;;;;;5092881;28;19950;-69
2022/02/04 13:17:31;;;;;;;;;;;25.40;29.20;;;;;;5090090;28;19932;-70
2022/02/04 13:19:58;;;;;;;;;;;25.40;29.20;;;;;;5071776;28;19928;-63
2022/02/04 13:22:26;;;;;;;;;;;25.40;29.30;;;;;;5071775;28;19958;-64
2022/02/04 13:25:12;;;;;;;;;;;25.40;29.20;;;;;;5071467;28;20471;-64
2022/02/04 13:27:58;;;;;;;;;;;25.40;29.10;;;;;;5073580;28;19927;-66
2022/02/04 13:30:26;;;;;;;;;;;25.30;28.90;;;;;;5092995;28;19928;-65
2022/02/04 13:32:53;;;;;;;;;;;25.30;28.80;;;;;;5092934;28;19967;-62
2022/02/04 13:35:29;;;;;;;;;;;25.30;28.80;;;;;;5092982;28;19977;-66
2022/02/04 13:38:04;;;;;;;;;;;25.30;28.70;;;;;;5091488;28;20439;-63
2022/02/04 13:40:59;;;;;;;;;;;25.20;28.60;;;;;;5093111;28;19928;-65
2022/02/04 13:43:36;;;;;;;;;;;25.20;28.50;;;;;;5093335;28;20310;-62
2022/02/04 13:46:15;;;;;;;;;;;25.20;28.50;;;;;;5092812;28;19931;-66
2022/02/04 13:48:57;;;;;;;;;;;25.20;28.50;;;;;;5091483;28;20331;-64
2022/02/04 13:51:43;;;;;;;;;;;25.20;28.50;;;;;;5092439;28;20381;-65
2022/02/04 13:54:33;;;;;;;;;;;25.10;28.50;;;;;;5092914;28;19975;-66
2022/02/04 13:57:14;;;;;;;;;;;25.10;28.50;;;;;;5092674;28;19999;-67
2022/02/04 13:59:52;;;;;;;;;;;25.10;28.40;;;;;;5071845;28;20385;-66
2022/02/04 14:02:23;;;;;;;;;;;25.10;28.40;;;;;;5071979;28;19979;-70
2022/02/04 14:04:52;;;;;;;;;;;25.00;28.50;;;;;;5072345;28;20012;-66
2022/02/04 14:07:22;;;;;;;;;;;25.00;29.00;;;;;;5071887;28;20207;-66
2022/02/04 14:09:57;;;;;;;;;;;25.00;29.40;;;;;;5107471;28;19980;-66
2022/02/04 14:12:24;;;;;;;;;;;25.00;29.70;;;;;;5112707;28;19924;-65
2022/02/04 14:15:00;;;;;;;;;;;25.00;29.80;;;;;;5112446;28;20441;-66
2022/02/04 14:17:28;;;;;;;;;;;24.90;29.80;;;;;;5111041;28;19948;-66
2022/02/04 14:19:55;;;;;;;;;;;24.90;29.80;;;;;;5091163;28;19982;-66
2022/02/04 14:22:22;;;;;;;;;;;24.90;29.90;;;;;;5092037;28;20296;-65
2022/02/04 14:24:50;;;;;;;;;;;24.90;29.90;;;;;;5092350;28;19924;-66
2022/02/04 14:27:17;;;;;;;;;;;24.90;29.90;;;;;;5092148;28;19927;-64
2022/02/04 14:30:02;;;;;;;;;;;24.80;29.70;;;;;;5091359;28;19954;-65
2022/02/04 14:32:39;;;;;;;;;;;24.80;29.60;;;;;;5091707;28;19976;-66
2022/02/04 14:35:23;;;;;;;;;;;24.80;29.50;;;;;;5091146;28;19975;-66
2022/02/04 14:52:04;;;;;;;;;;;24.60;28.90;;;;;;5091533;28;20343;-66
2022/02/04 15:04:48;;;;;;;;;;;24.50;29.00;;;;;;5088589;28;20096;-66
2022/02/04 15:07:15;;;;;;;;;;;24.50;29.00;;;;;;5087953;28;19953;-65
2022/02/04 15:09:51;;;;;;;;;;;24.50;29.00;;;;;;5089834;28;20388;-66
2022/02/04 15:12:23;;;;;;;;;;;24.40;29.00;;;;;;5090242;28;19989;-68
2022/02/04 15:14:50;;;;;;;;;;;24.40;29.00;;;;;;5088418;28;19924;-66
2022/02/04 15:17:17;;;;;;;;;;;24.30;28.90;;;;;;5087032;28;20254;-66
2022/02/04 15:19:45;;;;;;;;;;;24.30;28.90;;;;;;5089925;28;19969;-66
2022/02/04 15:22:13;;;;;;;;;;;24.30;29.00;;;;;;5090133;28;19924;-67
2022/02/04 15:24:40;;;;;;;;;;;24.30;28.90;;;;;;5087819;28;19977;-66
2022/02/04 15:27:08;;;;;;;;;;;24.30;29.00;;;;;;5087554;28;19924;-66
2022/02/04 15:29:40;;;;;;;;;;;24.30;29.10;;;;;;5089424;28;19970;-67
2022/02/04 15:32:07;;;;;;;;;;;24.20;29.30;;;;;;5090471;28;19924;-67
2022/02/04 15:34:34;;;;;;;;;;;24.20;29.40;;;;;;5088405;28;19971;-66
2022/02/04 15:37:02;;;;;;;;;;;24.20;29.30;;;;;;5087379;28;20369;-66
2022/02/04 15:42:57;;;;;;;;;;;24.20;29.30;;;;;;5089305;28;20411;-65
2022/02/04 15:46:02;;;;;;;;;;;24.20;29.20;;;;;;5087887;28;20477;-65
2022/02/04 15:48:37;;;;;;;;;;;24.10;29.20;;;;;;5087624;28;19924;-67
2022/02/04 15:57:40;;;;;;;;;;;24.00;29.10;;;;;;5087783;28;19993;-67
2022/02/04 16:00:28;;;;;;;;;;;24.00;29.10;;;;;;5089276;28;19928;-66
2022/02/04 16:03:11;;;;;;;;;;;23.90;29.10;;;;;;5088857;28;19924;-67
2022/02/04 16:05:32;;;;;;;;;;;23.90;29.10;;;;;;5087659;28;19936;-67
2022/02/04 16:22:15;;;;;;;;;;;23.80;29.10;;;;;;5089952;28;20411;-66
2022/02/04 16:30:16;;;;;;;;;;;23.60;28.90;;;;;;5078226;28;20083;-65
2022/02/04 16:32:43;;;;;;;;;;;23.60;29.00;;;;;;5092848;28;19925;-67
2022/02/04 16:35:10;;;;;;;;;;;23.60;29.00;;;;;;5091976;28;19928;-68
2022/02/04 16:37:38;;;;;;;;;;;23.60;29.00;;;;;;5092351;28;19924;-67
2022/02/04 16:40:15;;;;;;;;;;;23.50;28.90;;;;;;5090404;28;20140;-66
2022/02/04 16:42:43;;;;;;;;;;;23.50;29.00;;;;;;5089940;28;20294;-66
2022/02/04 16:45:10;;;;;;;;;;;23.50;29.00;;;;;;5089552;28;19924;-66
2022/02/04 16:47:37;;;;;;;;;;;23.50;29.00;;;;;;5089395;28;19981;-65
2022/02/04 16:50:06;;;;;;;;;;;23.50;29.10;;;;;;5089872;28;19978;-67
2022/02/04 16:52:33;;;;;;;;;;;23.50;29.10;;;;;;5089514;28;19993;-66
2022/02/04 16:55:00;;;;;;;;;;;23.50;29.10;;;;;;5090407;28;20015;-66
2022/02/04 16:57:28;;;;;;;;;;;23.50;29.10;;;;;;5089225;28;20506;-66
2022/02/04 16:59:59;;;;;;;;;;;23.50;29.10;;;;;;5090161;28;19924;-66
2022/02/04 17:02:26;;;;;;;;;;;23.40;29.00;;;;;;5089377;28;19928;-66
2022/02/04 17:04:53;;;;;;;;;;;23.40;29.00;;;;;;5090097;28;19924;-66
2022/02/04 17:07:24;;;;;;;;;;;23.40;29.10;;;;;;5088281;28;19924;-66
2022/02/04 17:09:52;;;;;;;;;;;23.30;29.00;;;;;;5089606;28;19951;-65
2022/02/04 17:12:29;;;;;;;;;;;23.40;29.10;;;;;;5089155;28;19924;-65
2022/02/04 17:14:56;;;;;;;;;;;23.30;29.10;;;;;;5089356;28;19932;-66
2022/02/04 17:17:24;;;;;;;;;;;23.30;29.20;;;;;;5088784;28;19977;-66
2022/02/04 17:20:04;;;;;;;;;;;23.40;29.20;;;;;;5089598;28;19924;-66
2022/02/04 17:22:33;;;;;;;;;;;23.40;29.30;;;;;;5088914;28;20304;-65
2022/02/04 17:25:02;;;;;;;;;;;23.40;29.30;;;;;;5089038;28;19924;-65
2022/02/04 17:27:30;;;;;;;;;;;23.40;29.30;;;;;;5089066;28;20158;-65
2022/02/04 17:29:57;;;;;;;;;;;23.30;29.30;;;;;;5089252;28;19961;-66
2022/02/04 17:32:26;;;;;;;;;;;23.30;29.30;;;;;;5088767;28;20369;-66
2022/02/04 17:34:53;;;;;;;;;;;23.30;29.30;;;;;;5089286;28;19924;-66
2022/02/04 17:37:20;;;;;;;;;;;23.30;29.40;;;;;;5088766;28;20210;-66
2022/02/04 17:39:48;;;;;;;;;;;23.30;29.40;;;;;;5088472;28;19932;-66
2022/02/04 17:42:22;;;;;;;;;;;23.30;29.40;;;;;;5087996;28;20243;-66
2022/02/04 17:44:52;;;;;;;;;;;23.30;29.40;;;;;;5088613;28;20382;-66
2022/02/04 17:47:24;;;;;;;;;;;23.30;29.50;;;;;;5088401;28;19946;-66
2022/02/04 17:50:03;;;;;;;;;;;23.30;29.50;;;;;;5088749;28;20148;-66
2022/02/04 17:52:41;;;;;;;;;;;23.30;29.50;;;;;;5071025;28;19997;-65
2022/02/04 17:55:13;;;;;;;;;;;23.30;29.50;;;;;;5088566;28;19970;-66
2022/02/04 17:57:50;;;;;;;;;;;23.30;29.60;;;;;;5088245;28;19924;-65
2022/02/04 18:03:35;;;;;;;;;;;23.30;29.60;;;;;;5088120;28;20405;-66
2022/02/04 18:06:09;;;;;;;;;;;23.20;29.60;;;;;;5087885;28;19946;-65
2022/02/04 18:08:37;;;;;;;;;;;23.20;29.60;;;;;;5088837;28;20010;-65
2022/02/04 18:11:05;;;;;;;;;;;23.20;29.60;;;;;;5087402;28;19960;-65
2022/02/04 18:13:32;;;;;;;;;;;23.20;29.70;;;;;;5088720;28;20110;-66
2022/02/04 18:16:00;;;;;;;;;;;23.20;29.70;;;;;;5087463;28;20072;-66
2022/02/04 18:18:28;;;;;;;;;;;23.20;29.70;;;;;;5088950;28;19985;-65
2022/02/04 18:20:56;;;;;;;;;;;23.20;29.80;;;;;;5087736;28;19924;-66
2022/02/04 18:23:22;;;;;;;;;;;23.20;29.80;;;;;;5087409;28;19924;-66
2022/02/04 18:25:51;;;;;;;;;;;23.10;29.70;;;;;;5086408;28;19924;-67
2022/02/04 18:28:18;;;;;;;;;;;23.10;29.80;;;;;;5088163;28;19932;-66
2022/02/04 18:30:45;;;;;;;;;;;23.10;29.80;;;;;;5087344;28;19971;-66
2022/02/04 18:33:14;;;;;;;;;;;23.10;29.80;;;;;;5087839;28;19924;-66
2022/02/04 18:35:43;;;;;;;;;;;23.10;29.90;;;;;;5087323;28;19977;-66
2022/02/04 18:38:16;;;;;;;;;;;23.00;29.90;;;;;;5088016;28;20286;-66
2022/02/04 18:41:21;;;;;;;;;;;23.00;29.90;;;;;;5087193;28;19976;-66
2022/02/04 18:43:43;;;;;;;;;;;23.00;29.90;;;;;;5087543;28;19993;-66
2022/02/04 18:46:48;;;;;;;;;;;23.00;30.00;;;;;;5086387;28;20160;-66
2022/02/04 18:49:02;;;;;;;;;;;23.00;30.00;;;;;;5087156;28;19924;-66
2022/02/04 18:54:41;;;;;;;;;;;23.00;30.00;;;;;;5072860;28;19924;-66
2022/02/04 18:57:11;;;;;;;;;;;23.00;30.00;;;;;;5086748;28;20404;-66
2022/02/04 18:59:49;;;;;;;;;;;22.90;30.00;;;;;;5069089;28;19924;-66
2022/02/04 19:02:17;;;;;;;;;;;23.00;30.00;;;;;;5086771;28;20000;-66
2022/02/04 19:04:55;;;;;;;;;;;22.90;30.00;;;;;;5087191;28;19946;-65
2022/02/04 19:07:32;;;;;;;;;;;23.00;30.00;;;;;;5068421;28;19924;-65
2022/02/04 19:09:59;;;;;;;;;;;23.00;30.00;;;;;;5087110;28;19959;-66
2022/02/04 19:12:33;;;;;;;;;;;22.90;30.00;;;;;;5085657;28;19971;-65
2022/02/04 19:17:52;;;;;;;;;;;22.90;30.00;;;;;;5086651;28;19928;-66
2022/02/04 19:20:41;;;;;;;;;;;22.90;30.00;;;;;;5087256;28;20600;-66
2022/02/04 19:23:09;;;;;;;;;;;22.90;30.00;;;;;;5086193;28;20015;-65
2022/02/04 19:25:39;;;;;;;;;;;22.90;30.00;;;;;;5086786;28;20327;-66
2022/02/04 19:28:23;;;;;;;;;;;22.90;30.00;;;;;;5086904;28;19978;-66
2022/02/04 19:30:52;;;;;;;;;;;22.90;30.00;;;;;;5086742;28;19963;-66
2022/02/04 19:33:21;;;;;;;;;;;22.90;30.00;;;;;;5086927;28;19950;-66
2022/02/04 19:35:49;;;;;;;;;;;22.80;30.00;;;;;;5086302;28;19980;-66
2022/02/04 19:38:16;;;;;;;;;;;22.80;30.10;;;;;;5086865;28;19959;-66
2022/02/04 19:40:45;;;;;;;;;;;22.80;30.10;;;;;;5086107;28;19928;-66
2022/02/04 19:43:14;;;;;;;;;;;22.80;30.10;;;;;;5086797;28;20373;-66
2022/02/04 19:45:52;;;;;;;;;;;22.80;30.10;;;;;;5086258;28;20408;-66
2022/02/04 19:48:34;;;;;;;;;;;22.80;30.10;;;;;;5086372;28;19950;-66
2022/02/04 19:51:25;;;;;;;;;;;22.80;30.10;;;;;;5085322;28;19959;-66